Big Bear Station Historical Data
Daily Summary for March 9, 2018 Units:  Metric    English   Both
Next Day »
Daily Weekly Monthly Yearly Custom
  High: Low: Average:
Temperature: 13.9 °C -0.8 °C 5.4 °C
Dew Point: 3.6 °C -3 °C 1.2 °C
Humidity: 92% 46% 76%
Wind Speed: 11.7km/h 0km/h 1.8km/h
Wind Gust: -1607.7km/h - -
Wind- - WSW
Pressure: 795.4 hPa 793.3 hPa -
Precipitation: 0 mm    
Historical Graphs
 
 
Tabular Data for March 9, 2018
Time Temperature Dew Point Pressure Wind Wind Speed Wind Gust Humidity Rainfall Rate (Hourly)
00:03 0.8 °C -3 °C 795.4 hPa Calm   -1607.7 km/h 76% 0 mm
00:18 0.8 °C -2.6 °C 795 hPa Calm   -1607.7 km/h 78% 0 mm
00:33 0.5 °C -2.6 °C 795 hPa Calm   -1607.7 km/h 80% 0 mm
00:49 0.5 °C -2.6 °C 795 hPa WNW 2.7 km/h -1607.7 km/h 80% 0 mm
01:04 1 °C -2.2 °C 795 hPa Calm   -1607.7 km/h 79% 0 mm
01:19 1.1 °C -1.9 °C 795 hPa Calm   -1607.7 km/h 80% 0 mm
01:34 1 °C -2.1 °C 795 hPa Calm   -1607.7 km/h 80% 0 mm
01:50 1.4 °C -1.7 °C 794.4 hPa Calm   -1607.7 km/h 80% 0 mm
02:05 2.2 °C -1.2 °C 794.4 hPa Calm   -1607.7 km/h 78% 0 mm
02:21 2.1 °C -1.2 °C 794.4 hPa Calm   -1607.7 km/h 79% 0 mm
02:36 2.5 °C -1.1 °C 794 hPa Calm   -1607.7 km/h 77% 0 mm
02:51 2.1 °C -1.5 °C 794 hPa Calm   -1607.7 km/h 77% 0 mm
03:06 1.9 °C -1.4 °C 794 hPa Calm   -1607.7 km/h 79% 0 mm
03:22 1.6 °C -1.4 °C 794 hPa Calm   -1607.7 km/h 80% 0 mm
03:37 1.2 °C -1.5 °C 794 hPa Calm   -1607.7 km/h 82% 0 mm
03:53 0.9 °C -1.7 °C 794 hPa Calm   -1607.7 km/h 83% 0 mm
04:12 0.7 °C -1.7 °C 793.7 hPa Calm   -1607.7 km/h 84% 0 mm
04:27 0.6 °C -1.4 °C 794 hPa Calm   -1607.7 km/h 86% 0 mm
04:43 0.3 °C -1.9 °C 794 hPa Calm   -1607.7 km/h 85% 0 mm
04:58 0.1 °C -2.1 °C 794 hPa Calm   -1607.7 km/h 85% 0 mm
05:13 -0.3 °C -2.2 °C 794.4 hPa Calm   -1607.7 km/h 87% 0 mm
05:28 -0.6 °C -2.5 °C 794 hPa Calm   -1607.7 km/h 87% 0 mm
05:43 -0.4 °C -2 °C 794 hPa Calm   -1607.7 km/h 89% 0 mm
05:58 -0.2 °C -1.9 °C 794 hPa Calm   -1607.7 km/h 88% 0 mm
06:14 -0.7 °C -2.3 °C 794 hPa Calm   -1607.7 km/h 89% 0 mm
06:29 -0.5 °C -1.8 °C 794 hPa Calm   -1607.7 km/h 91% 0 mm
06:44 -0.8 °C -2.1 °C 794 hPa Calm   -1607.7 km/h 91% 0 mm
06:59 -0.6 °C -2.1 °C 794.4 hPa Calm   -1607.7 km/h 90% 0 mm
07:14 -0.3 °C -1.4 °C 794.4 hPa Calm   -1607.7 km/h 92% 0 mm
07:30 0.8 °C -0.7 °C 794.4 hPa Calm   -1607.7 km/h 90% 0 mm
07:45 1.9 °C -0.2 °C 794.7 hPa Calm   -1607.7 km/h 86% 0 mm
08:00 2.1 °C 0.2 °C 794.7 hPa Calm   -1607.7 km/h 87% 0 mm
08:15 3 °C 0.9 °C 794.4 hPa Calm   -1607.7 km/h 86% 0 mm
08:31 4.5 °C 1.9 °C 794.4 hPa Calm   -1607.7 km/h 83% 0 mm
08:46 5.7 °C 2.7 °C 794.4 hPa Calm   -1607.7 km/h 81% 0 mm
09:01 7.1 °C 2.6 °C 794.7 hPa Calm   -1607.7 km/h 73% 0 mm
09:16 7.5 °C 2.4 °C 794.4 hPa Calm   -1607.7 km/h 70% 0 mm
09:32 8.4 °C 2.6 °C 794.4 hPa Calm   -1607.7 km/h 67% 0 mm
09:47 9.4 °C 2.7 °C 794.4 hPa NNE 3.5 km/h -1607.7 km/h 63% 0 mm
10:03 11 °C 2.3 °C 794.4 hPa ESE 2.7 km/h -1607.7 km/h 55% 0 mm
10:19 12 °C 2.7 °C 794.4 hPa NNW 2.7 km/h -1607.7 km/h 53% 0 mm
10:34 12.2 °C 2.4 °C 794.4 hPa NNW 3.5 km/h -1607.7 km/h 51% 0 mm
10:49 12.7 °C 2.6 °C 794.7 hPa NE 8.5 km/h -1607.7 km/h 50% 0 mm
11:07 12.6 °C 3.3 °C 794.7 hPa NNW 4.3 km/h -1607.7 km/h 53% 0 mm
11:22 13.5 °C 3 °C 794.7 hPa NNW 11.7 km/h -1607.7 km/h 49% 0 mm
11:38 13.5 °C 2.7 °C 794.4 hPa NNW 8.5 km/h -1607.7 km/h 48% 0 mm
11:55 13.3 °C 1.9 °C 794.4 hPa WNW 8.5 km/h -1607.7 km/h 46% 0 mm
12:13 13.9 °C 2.8 °C 794.4 hPa South 5.1 km/h -1607.7 km/h 47% 0 mm
12:28 13.7 °C 2.9 °C 794 hPa NW 5.1 km/h -1607.7 km/h 48% 0 mm
12:44 12.9 °C 2.7 °C 794 hPa SW 1.8 km/h -1607.7 km/h 50% 0 mm
12:59 13.4 °C 3.4 °C 794 hPa NE 6.8 km/h -1607.7 km/h 51% 0 mm
13:15 12.9 °C 3.3 °C 794 hPa SE 8.5 km/h -1607.7 km/h 52% 0 mm
13:30 11.9 °C 3.1 °C 794 hPa South 8.5 km/h -1607.7 km/h 55% 0 mm
13:46 11.9 °C 3.6 °C 794 hPa NW 4.3 km/h -1607.7 km/h 57% 0 mm
14:01 11.2 °C 3.3 °C 794 hPa South 6 km/h -1607.7 km/h 58% 0 mm
14:21 11 °C 3.6 °C 794 hPa NNW 7.6 km/h -1607.7 km/h 60% 0 mm
14:37 10.8 °C 3.6 °C 794 hPa NW 3.5 km/h -1607.7 km/h 61% 0 mm
14:52 10.8 °C 3.6 °C 794 hPa West 6 km/h -1607.7 km/h 61% 0 mm
15:07 10.6 °C 3.6 °C 794 hPa West 4.3 km/h -1607.7 km/h 62% 0 mm
15:22 10.6 °C 3.4 °C 794 hPa NNW 6 km/h -1607.7 km/h 61% 0 mm
15:39 10.6 °C 3.6 °C 794 hPa NW 6.8 km/h -1607.7 km/h 62% 0 mm
15:56 9.9 °C 3.6 °C 794 hPa Calm   -1607.7 km/h 65% 0 mm
16:11 9.9 °C 3.6 °C 793.7 hPa West 3.5 km/h -1607.7 km/h 65% 0 mm
16:27 9.2 °C 3.6 °C 793.7 hPa NW 5.1 km/h -1607.7 km/h 68% 0 mm
16:42 9 °C 3.4 °C 794 hPa West 4.3 km/h -1607.7 km/h 68% 0 mm
16:57 8.4 °C 3.4 °C 793.7 hPa NNW 2.7 km/h -1607.7 km/h 71% 0 mm
17:12 7.9 °C 3.3 °C 793.7 hPa NE 1.8 km/h -1607.7 km/h 73% 0 mm
17:28 7.5 °C 3.3 °C 793.7 hPa South 2.7 km/h -1607.7 km/h 75% 0 mm
17:44 6.9 °C 2.9 °C 793.7 hPa Calm   -1607.7 km/h 76% 0 mm
17:59 6.5 °C 3.1 °C 793.7 hPa Calm   -1607.7 km/h 79% 0 mm
18:14 6 °C 2.8 °C 793.7 hPa Calm   -1607.7 km/h 80% 0 mm
18:30 5.7 °C 2.7 °C 793.7 hPa Calm   -1607.7 km/h 81% 0 mm
18:45 5.4 °C 2.6 °C 793.7 hPa SW 1.8 km/h -1607.7 km/h 82% 0 mm
19:00 5 °C 2.3 °C 793.7 hPa Calm   -1607.7 km/h 83% 0 mm
19:15 4.8 °C 2.3 °C 794 hPa Calm   -1607.7 km/h 84% 0 mm
19:30 4.6 °C 2.2 °C 794 hPa Calm   -1607.7 km/h 84% 0 mm
19:45 4.2 °C 1.9 °C 794 hPa Calm   -1607.7 km/h 85% 0 mm
20:01 4.1 °C 1.8 °C 794 hPa Calm   -1607.7 km/h 85% 0 mm
20:16 3.6 °C 1.5 °C 793.7 hPa Calm   -1607.7 km/h 86% 0 mm
20:31 3.5 °C 1.7 °C 794 hPa Calm   -1607.7 km/h 88% 0 mm
20:48 3.5 °C 1.7 °C 794 hPa Calm   -1607.7 km/h 88% 0 mm
21:03 3.9 °C 2.1 °C 794 hPa Calm   -1607.7 km/h 88% 0 mm
21:19 3.7 °C 2.1 °C 794 hPa Calm   -1607.7 km/h 89% 0 mm
21:34 3.6 °C 1.9 °C 794 hPa Calm   -1607.7 km/h 89% 0 mm
21:50 3.8 °C 2.3 °C 794 hPa Calm   -1607.7 km/h 90% 0 mm
22:07 4 °C 2.3 °C 794 hPa Calm   -1607.7 km/h 89% 0 mm
22:22 3.9 °C 2.2 °C 794 hPa Calm   -1607.7 km/h 89% 0 mm
22:37 4 °C 2.5 °C 794 hPa Calm   -1607.7 km/h 90% 0 mm
22:52 4 °C 2.5 °C 793.7 hPa West 1.8 km/h -1607.7 km/h 90% 0 mm
23:10 4.1 °C 2.4 °C 794 hPa WNW 3.5 km/h -1607.7 km/h 89% 0 mm
23:25 4 °C 2.3 °C 793.7 hPa Calm   -1607.7 km/h 89% 0 mm
23:40 3.7 °C 2.2 °C 793.7 hPa Calm   -1607.7 km/h 90% 0 mm
23:56 3.9 °C 2.4 °C 793.3 hPa ENE 3.5 km/h -1607.7 km/h 90% 0 mm
Big Bear CA Weather